Time;durP1;ratioP1;P1;durP2;ratioP2;P2;SDS_P1;SDS_P2;PMS_P1;PMS_P2;Temp;Humidity;BMP_temperature;BMP_pressure;BME280_temperature;BME280_humidity;BME280_pressure;Samples;Min_cycle;Max_cycle;Signal;HPM_P1;HPM_P2
2024/03/20 00:00:26;;;;;;;5.00;2.47;;;10.40;99.90;;;;;;5008262;28;20041;-82
2024/03/20 00:02:51;;;;;;;5.93;3.15;;;10.40;99.90;;;;;;4990101;28;20040;-82
2024/03/20 00:05:17;;;;;;;7.53;3.30;;;10.30;99.90;;;;;;4986959;28;20484;-82
2024/03/20 00:07:42;;;;;;;7.80;2.65;;;10.20;99.90;;;;;;4986296;28;20049;-81
2024/03/20 00:10:12;;;;;;;4.22;2.83;;;10.30;99.90;;;;;;4987476;28;20496;-82
2024/03/20 00:12:41;;;;;;;5.30;2.78;;;10.40;99.90;;;;;;4970136;28;20493;-81
2024/03/20 00:15:06;;;;;;;3.97;2.65;;;10.40;99.90;;;;;;4959033;28;20112;-82
2024/03/20 00:17:33;;;;;;;6.15;2.58;;;10.30;99.90;;;;;;4988000;28;20138;-82
2024/03/20 00:19:59;;;;;;;4.30;3.10;;;10.20;99.90;;;;;;4981652;28;20503;-82
2024/03/20 00:22:24;;;;;;;10.60;3.45;;;10.20;99.90;;;;;;4950568;28;20030;-82
2024/03/20 00:24:50;;;;;;;7.03;3.20;;;10.10;99.90;;;;;;4986285;28;20088;-82
2024/03/20 00:27:15;;;;;;;5.40;2.65;;;10.10;99.90;;;;;;4985056;28;20031;-81
2024/03/20 00:29:41;;;;;;;5.63;2.70;;;10.00;99.90;;;;;;4970145;28;20085;-82
2024/03/20 00:32:07;;;;;;;8.73;2.78;;;10.10;99.90;;;;;;4990037;28;20125;-82
2024/03/20 00:34:32;;;;;;;4.63;2.38;;;10.10;99.90;;;;;;4965178;28;20113;-82
2024/03/20 00:36:58;;;;;;;3.85;2.70;;;10.10;99.90;;;;;;4962486;28;20038;-81
2024/03/20 00:39:23;;;;;;;2.50;1.85;;;10.20;99.90;;;;;;4985549;28;20389;-82
2024/03/20 00:41:49;;;;;;;2.80;1.90;;;10.20;99.90;;;;;;4968892;28;20038;-82
2024/03/20 00:44:14;;;;;;;5.93;2.78;;;10.20;99.90;;;;;;4986355;28;20038;-82
2024/03/20 00:46:40;;;;;;;3.42;2.55;;;10.10;99.90;;;;;;4968358;28;20492;-82
2024/03/20 00:49:06;;;;;;;2.80;2.15;;;10.10;99.90;;;;;;4986302;28;20044;-82
2024/03/20 00:51:32;;;;;;;6.10;2.97;;;10.00;99.90;;;;;;4981737;28;20046;-81
2024/03/20 00:53:58;;;;;;;5.30;2.92;;;10.00;99.90;;;;;;4961067;28;24838;-82
2024/03/20 00:56:24;;;;;;;4.43;2.90;;;9.90;99.90;;;;;;4961384;28;20029;-82
2024/03/20 00:58:49;;;;;;;7.57;3.15;;;9.90;99.90;;;;;;4983146;28;20496;-82
2024/03/20 01:01:15;;;;;;;5.88;3.03;;;9.90;99.90;;;;;;4982588;28;20049;-82
2024/03/20 01:03:41;;;;;;;4.68;3.28;;;9.90;99.90;;;;;;4984833;28;20109;-82
2024/03/20 01:06:06;;;;;;;7.00;3.10;;;10.00;99.90;;;;;;4985916;28;20039;-81
2024/03/20 01:08:32;;;;;;;9.52;3.25;;;10.00;99.90;;;;;;4967867;28;20483;-81
2024/03/20 01:10:58;;;;;;;5.50;2.80;;;10.00;99.90;;;;;;4955205;28;20424;-82
2024/03/20 01:13:23;;;;;;;4.95;2.90;;;10.00;99.90;;;;;;4966635;28;20117;-82
2024/03/20 01:15:49;;;;;;;3.83;2.88;;;10.20;99.90;;;;;;4971008;28;20062;-82
2024/03/20 01:18:16;;;;;;;7.28;3.20;;;10.10;99.90;;;;;;4969269;28;20046;-81
2024/03/20 01:20:42;;;;;;;5.93;3.53;;;10.00;99.90;;;;;;4982921;28;20038;-82
2024/03/20 01:23:08;;;;;;;5.05;3.50;;;9.90;99.90;;;;;;4970280;28;20117;-82
2024/03/20 01:25:33;;;;;;;6.20;3.25;;;9.90;99.90;;;;;;4970527;28;20560;-82
2024/03/20 01:27:59;;;;;;;5.25;3.20;;;9.90;99.90;;;;;;4991971;28;20105;-81
2024/03/20 01:30:24;;;;;;;4.63;2.67;;;9.90;99.90;;;;;;4986571;28;20039;-82
2024/03/20 01:32:50;;;;;;;6.30;2.92;;;10.00;99.90;;;;;;4984933;28;20034;-81
2024/03/20 01:35:16;;;;;;;5.00;3.10;;;9.90;99.90;;;;;;4966415;28;20628;-84
2024/03/20 01:37:42;;;;;;;2.90;2.38;;;9.90;99.90;;;;;;4969238;28;20108;-83
2024/03/20 01:40:09;;;;;;;3.38;1.65;;;9.90;99.90;;;;;;4987874;28;20030;-82
2024/03/20 01:42:34;;;;;;;5.82;1.85;;;10.20;99.90;;;;;;4984639;28;20035;-82
2024/03/20 01:45:13;;;;;;;4.00;2.38;;;10.20;99.90;;;;;;4984116;28;20571;-82
2024/03/20 01:47:42;;;;;;;6.50;2.30;;;10.30;99.90;;;;;;4966638;28;20515;-83
2024/03/20 01:50:11;;;;;;;4.38;2.03;;;10.20;99.90;;;;;;4966275;28;20569;-82
2024/03/20 01:52:49;;;;;;;3.03;2.00;;;10.20;99.90;;;;;;4949423;28;20061;-82
2024/03/20 01:55:15;;;;;;;8.95;4.00;;;10.20;99.90;;;;;;4972952;28;20124;-82
2024/03/20 01:57:40;;;;;;;4.75;2.67;;;10.00;99.90;;;;;;4967662;28;20102;-82
2024/03/20 02:00:07;;;;;;;6.25;2.88;;;9.80;99.90;;;;;;4971407;28;20362;-83
2024/03/20 02:02:32;;;;;;;3.38;2.42;;;9.80;99.90;;;;;;4964719;28;20035;-83
2024/03/20 02:04:58;;;;;;;3.85;1.90;;;9.80;99.90;;;;;;4969884;28;20781;-83
2024/03/20 02:07:23;;;;;;;6.28;3.10;;;10.00;99.90;;;;;;4971875;28;20473;-83
2024/03/20 02:09:49;;;;;;;4.18;2.90;;;9.80;99.90;;;;;;4988271;28;20030;-83
2024/03/20 02:12:15;;;;;;;6.15;3.10;;;9.80;99.90;;;;;;4987685;28;20117;-82
2024/03/20 02:14:40;;;;;;;6.38;2.90;;;9.70;99.90;;;;;;4976319;28;20427;-80
2024/03/20 02:17:06;;;;;;;9.00;2.83;;;9.70;99.90;;;;;;4990824;28;20031;-82
2024/03/20 02:19:32;;;;;;;5.18;2.95;;;9.60;99.90;;;;;;4987852;28;20046;-83
2024/03/20 02:21:58;;;;;;;4.50;2.17;;;9.70;99.90;;;;;;4969402;28;20068;-83
2024/03/20 02:24:23;;;;;;;5.38;2.25;;;9.70;99.90;;;;;;4968229;28;20126;-83
2024/03/20 02:26:49;;;;;;;4.40;3.35;;;9.70;99.90;;;;;;4975979;28;20087;-83
2024/03/20 02:29:14;;;;;;;6.68;3.33;;;9.70;99.90;;;;;;4968411;28;20767;-83
2024/03/20 02:31:40;;;;;;;6.65;3.17;;;9.70;99.90;;;;;;4972418;28;20038;-83
2024/03/20 02:34:05;;;;;;;4.78;2.20;;;9.70;99.90;;;;;;4989522;28;20042;-83
2024/03/20 02:36:31;;;;;;;3.65;1.77;;;9.80;99.90;;;;;;4976169;28;20033;-83
2024/03/20 02:38:57;;;;;;;6.75;3.08;;;9.90;99.90;;;;;;4966819;28;20129;-83
2024/03/20 02:41:23;;;;;;;4.10;2.85;;;9.80;99.90;;;;;;4984738;28;20506;-82
2024/03/20 02:43:49;;;;;;;5.10;2.33;;;9.90;99.90;;;;;;4985688;28;20476;-82
2024/03/20 02:46:14;;;;;;;2.35;1.60;;;9.90;99.90;;;;;;4976095;28;20077;-82
2024/03/20 02:48:40;;;;;;;2.90;2.20;;;9.80;99.90;;;;;;4987257;28;20034;-83
2024/03/20 02:51:05;;;;;;;8.05;3.20;;;9.90;99.90;;;;;;4971188;28;20049;-82
2024/03/20 02:53:31;;;;;;;6.05;2.75;;;10.20;99.90;;;;;;4972684;28;20747;-83
2024/03/20 02:55:56;;;;;;;3.88;2.15;;;10.10;99.90;;;;;;4955449;28;20031;-83
2024/03/20 02:58:22;;;;;;;2.25;1.98;;;10.10;99.90;;;;;;4971992;28;20038;-83
2024/03/20 03:00:47;;;;;;;4.68;2.50;;;10.10;99.90;;;;;;4956534;28;20045;-82
2024/03/20 03:03:13;;;;;;;6.10;3.08;;;10.20;99.90;;;;;;4953464;28;20030;-82
2024/03/20 03:05:38;;;;;;;6.25;2.90;;;10.10;99.90;;;;;;4980161;28;20089;-83
2024/03/20 03:08:05;;;;;;;3.25;2.15;;;10.20;99.90;;;;;;4996961;28;20327;-82
2024/03/20 03:10:30;;;;;;;5.38;2.40;;;10.20;99.90;;;;;;4967310;28;20038;-82
2024/03/20 03:12:56;;;;;;;4.32;2.50;;;10.20;99.90;;;;;;4952926;28;20399;-83
2024/03/20 03:15:22;;;;;;;7.40;2.58;;;10.20;99.90;;;;;;4970061;28;20026;-82
2024/03/20 03:17:52;;;;;;;5.43;2.35;;;10.20;99.90;;;;;;4989602;28;20092;-81
2024/03/20 03:20:19;;;;;;;2.92;2.30;;;10.20;99.90;;;;;;4953914;28;20025;-82
2024/03/20 03:22:45;;;;;;;4.00;2.10;;;10.20;99.90;;;;;;4967840;28;20072;-83
2024/03/20 03:25:11;;;;;;;3.28;2.28;;;10.20;99.90;;;;;;4978992;28;20498;-85
2024/03/20 03:27:40;;;;;;;5.10;2.90;;;10.20;99.90;;;;;;4986313;28;20405;-83
2024/03/20 03:30:08;;;;;;;4.97;2.63;;;10.20;99.90;;;;;;4971687;28;20496;-82
2024/03/20 03:32:36;;;;;;;4.28;2.17;;;10.20;99.90;;;;;;4962142;28;20058;-83
2024/03/20 03:35:03;;;;;;;4.57;2.72;;;10.20;99.90;;;;;;4969635;28;20027;-83
2024/03/20 03:37:29;;;;;;;5.82;3.47;;;10.20;99.90;;;;;;4971512;28;20592;-83
2024/03/20 03:39:54;;;;;;;7.32;3.35;;;10.20;99.90;;;;;;4966571;28;20115;-83
2024/03/20 03:42:20;;;;;;;5.43;2.45;;;10.10;99.90;;;;;;4972515;28;20065;-82
2024/03/20 03:44:46;;;;;;;5.38;3.30;;;10.20;99.90;;;;;;4968082;28;20087;-82
2024/03/20 03:47:11;;;;;;;5.88;3.40;;;10.20;99.90;;;;;;4969874;28;20034;-83
2024/03/20 03:49:37;;;;;;;9.25;3.90;;;10.10;99.90;;;;;;4986136;28;20031;-82
2024/03/20 03:52:03;;;;;;;4.00;2.97;;;10.10;99.90;;;;;;4983826;28;20572;-82
2024/03/20 03:54:29;;;;;;;4.07;2.70;;;10.10;99.90;;;;;;4973792;28;20167;-83
2024/03/20 03:56:54;;;;;;;6.38;2.70;;;10.10;99.90;;;;;;4968178;28;20038;-82
2024/03/20 03:59:20;;;;;;;5.68;2.20;;;10.10;99.90;;;;;;4954925;28;20060;-83
2024/03/20 04:01:46;;;;;;;4.25;2.35;;;10.10;99.90;;;;;;4981437;28;20042;-81
2024/03/20 04:04:13;;;;;;;6.68;3.60;;;10.20;99.90;;;;;;4966883;28;20497;-83
2024/03/20 04:06:39;;;;;;;5.53;3.60;;;10.20;99.90;;;;;;4967519;28;20041;-83
2024/03/20 04:09:05;;;;;;;5.55;2.88;;;10.10;99.90;;;;;;4983801;28;20206;-83
2024/03/20 04:11:31;;;;;;;4.47;2.75;;;10.10;99.90;;;;;;4983748;28;20034;-83
2024/03/20 04:13:56;;;;;;;3.90;2.38;;;10.00;99.90;;;;;;4970105;28;20444;-83
2024/03/20 04:16:22;;;;;;;5.05;3.00;;;10.00;99.90;;;;;;4984992;28;20425;-82
2024/03/20 04:18:48;;;;;;;6.43;2.67;;;9.90;99.90;;;;;;4981801;28;20414;-83
2024/03/20 04:21:13;;;;;;;10.35;3.35;;;9.80;99.90;;;;;;4963754;28;20034;-82
2024/03/20 04:23:39;;;;;;;10.65;3.17;;;9.80;99.90;;;;;;4968723;28;20049;-82
2024/03/20 04:26:05;;;;;;;5.28;3.42;;;9.70;99.90;;;;;;4967040;28;20053;-83
2024/03/20 04:28:31;;;;;;;5.13;2.25;;;9.60;99.90;;;;;;4982632;28;20034;-81
2024/03/20 04:30:56;;;;;;;6.38;3.05;;;9.60;99.90;;;;;;4985882;28;20490;-83
2024/03/20 04:33:22;;;;;;;8.30;3.28;;;9.60;99.90;;;;;;4981257;28;20080;-82
2024/03/20 04:35:47;;;;;;;4.53;3.03;;;9.50;99.90;;;;;;4987171;28;20030;-79
2024/03/20 04:38:13;;;;;;;5.22;2.50;;;9.50;99.90;;;;;;4988147;28;20049;-80
2024/03/20 04:40:39;;;;;;;8.63;3.38;;;9.60;99.90;;;;;;4986843;28;20034;-82
2024/03/20 04:43:05;;;;;;;4.75;2.60;;;9.60;99.90;;;;;;4992303;28;20038;-82
2024/03/20 04:45:30;;;;;;;6.40;3.45;;;9.60;99.90;;;;;;4990079;28;20030;-83
2024/03/20 04:47:56;;;;;;;8.73;3.90;;;9.60;99.90;;;;;;4990360;28;20513;-83
2024/03/20 04:50:21;;;;;;;6.22;3.40;;;9.50;99.90;;;;;;5005260;28;20476;-83
2024/03/20 04:52:47;;;;;;;6.28;3.58;;;9.50;99.90;;;;;;4982330;28;20060;-83
2024/03/20 04:55:13;;;;;;;3.08;2.47;;;9.40;99.90;;;;;;4991607;28;20056;-84
2024/03/20 04:57:39;;;;;;;3.90;2.60;;;9.50;99.90;;;;;;5005612;28;20366;-83
2024/03/20 05:00:12;;;;;;;3.00;2.47;;;9.60;99.90;;;;;;4985609;28;20133;-83
2024/03/20 05:02:38;;;;;;;5.68;2.75;;;9.70;99.90;;;;;;4990496;28;20554;-83
2024/03/20 05:05:04;;;;;;;7.18;2.92;;;9.60;99.90;;;;;;5003569;28;20045;-82
2024/03/20 05:07:29;;;;;;;5.95;3.80;;;9.50;99.90;;;;;;4983587;28;20384;-81
2024/03/20 05:09:55;;;;;;;9.93;3.80;;;9.50;99.90;;;;;;4999312;28;20443;-83
2024/03/20 05:12:21;;;;;;;6.78;3.78;;;9.30;99.90;;;;;;4987719;28;20513;-82
2024/03/20 05:14:46;;;;;;;5.10;3.08;;;9.20;99.90;;;;;;4978002;28;20391;-82
2024/03/20 05:17:12;;;;;;;2.65;2.40;;;9.30;99.90;;;;;;4988687;28;20113;-81
2024/03/20 05:19:37;;;;;;;6.45;2.58;;;9.30;99.90;;;;;;4975691;28;20553;-82
2024/03/20 05:22:03;;;;;;;7.60;3.70;;;9.40;99.90;;;;;;5006767;28;20038;-84
2024/03/20 05:24:29;;;;;;;7.45;3.05;;;9.30;99.90;;;;;;4983585;28;20034;-83
2024/03/20 05:26:56;;;;;;;7.68;3.90;;;9.30;99.90;;;;;;4986237;28;20088;-83
2024/03/20 05:29:22;;;;;;;5.15;2.90;;;9.30;99.90;;;;;;4985466;28;20038;-84
2024/03/20 05:31:47;;;;;;;7.57;3.22;;;9.30;99.90;;;;;;4984916;28;20487;-84
2024/03/20 05:34:13;;;;;;;3.20;2.50;;;9.40;99.90;;;;;;5001000;28;20128;-82
2024/03/20 05:36:38;;;;;;;7.35;4.18;;;9.40;99.90;;;;;;4985499;28;20093;-83
2024/03/20 05:39:05;;;;;;;4.82;3.92;;;9.40;99.90;;;;;;4976204;28;20467;-82
2024/03/20 05:41:30;;;;;;;7.63;4.25;;;9.30;99.90;;;;;;4973919;28;20386;-83
2024/03/20 05:43:56;;;;;;;7.97;4.43;;;9.30;99.90;;;;;;4985368;28;20073;-83
2024/03/20 05:46:22;;;;;;;3.78;2.40;;;9.30;99.90;;;;;;4985553;28;20088;-82
2024/03/20 05:48:56;;;;;;;4.93;2.35;;;9.40;99.90;;;;;;4981572;28;20035;-83
2024/03/20 05:51:21;;;;;;;3.95;2.58;;;9.60;99.90;;;;;;4969392;28;20097;-82
2024/03/20 05:53:47;;;;;;;6.53;4.03;;;9.60;99.90;;;;;;4988633;28;20440;-80
2024/03/20 05:56:13;;;;;;;7.75;4.20;;;9.60;99.90;;;;;;4974610;28;20437;-84
2024/03/20 05:58:41;;;;;;;5.75;3.15;;;9.60;99.90;;;;;;4986418;28;20037;-83
2024/03/20 06:01:06;;;;;;;5.88;3.83;;;9.60;99.90;;;;;;4965418;28;20085;-84
2024/03/20 06:03:32;;;;;;;5.15;3.75;;;9.60;99.90;;;;;;4987487;28;20030;-83
2024/03/20 06:05:57;;;;;;;7.93;4.43;;;9.60;99.90;;;;;;4973812;28;20031;-83
2024/03/20 06:08:23;;;;;;;9.88;4.43;;;9.60;99.90;;;;;;4975029;28;20423;-83
2024/03/20 06:10:51;;;;;;;7.55;3.60;;;9.60;99.90;;;;;;4990581;28;20550;-82
2024/03/20 06:13:17;;;;;;;4.95;3.70;;;9.60;99.90;;;;;;4972792;28;20518;-81
2024/03/20 06:15:42;;;;;;;6.65;3.22;;;9.60;99.90;;;;;;4989878;28;20074;-83
2024/03/20 06:18:08;;;;;;;7.85;4.57;;;9.70;99.90;;;;;;4960351;28;20621;-83
2024/03/20 06:20:35;;;;;;;9.07;3.72;;;9.70;99.90;;;;;;4974974;28;20543;-84
2024/03/20 06:23:01;;;;;;;3.67;2.75;;;9.70;99.90;;;;;;4988727;28;20125;-84
2024/03/20 06:25:27;;;;;;;3.55;2.30;;;9.70;99.90;;;;;;4992249;28;20034;-84
2024/03/20 06:27:53;;;;;;;4.90;3.60;;;9.80;99.90;;;;;;4986710;28;20057;-83
2024/03/20 06:30:18;;;;;;;9.20;3.80;;;9.90;99.90;;;;;;4968811;28;20484;-82
2024/03/20 06:32:44;;;;;;;4.72;2.58;;;10.00;99.90;;;;;;4986283;28;20109;-83
2024/03/20 06:35:10;;;;;;;9.75;3.88;;;10.00;99.90;;;;;;4984729;28;20037;-83
2024/03/20 06:37:36;;;;;;;5.10;3.42;;;10.00;99.90;;;;;;4971972;28;20038;-83
2024/03/20 06:40:03;;;;;;;3.95;2.50;;;10.00;99.90;;;;;;4968105;28;20031;-83
2024/03/20 06:42:28;;;;;;;3.05;2.53;;;10.10;99.90;;;;;;4974034;28;20069;-80
2024/03/20 06:44:54;;;;;;;5.43;2.60;;;10.10;99.90;;;;;;4974621;28;20018;-83
2024/03/20 06:47:20;;;;;;;3.67;2.50;;;10.20;99.90;;;;;;4985450;28;20506;-83
2024/03/20 06:49:47;;;;;;;5.90;3.65;;;10.20;99.90;;;;;;4969298;28;20604;-82
2024/03/20 06:52:14;;;;;;;4.57;3.58;;;10.20;99.90;;;;;;4972891;28;20037;-83
2024/03/20 06:54:43;;;;;;;6.45;4.15;;;10.20;99.90;;;;;;4970739;28;20038;-81
2024/03/20 06:57:18;;;;;;;4.97;3.65;;;10.30;99.90;;;;;;4969301;28;20027;-84
2024/03/20 06:59:47;;;;;;;4.47;2.77;;;10.30;99.90;;;;;;4973721;28;20073;-84
2024/03/20 07:02:13;;;;;;;4.18;2.88;;;10.40;99.90;;;;;;4990251;28;20266;-84
2024/03/20 07:04:39;;;;;;;4.47;2.60;;;10.40;99.90;;;;;;4986929;28;20969;-83
2024/03/20 07:07:04;;;;;;;8.63;3.78;;;10.50;99.90;;;;;;4985330;28;20034;-82
2024/03/20 07:09:31;;;;;;;5.07;2.78;;;10.50;99.90;;;;;;4970012;28;20085;-84
2024/03/20 07:11:57;;;;;;;8.00;3.55;;;10.60;99.90;;;;;;4949057;28;20046;-79
2024/03/20 07:14:24;;;;;;;6.78;4.05;;;10.60;99.90;;;;;;4916490;28;20051;-80
2024/03/20 07:16:49;;;;;;;6.25;2.55;;;10.70;99.90;;;;;;4916725;28;20062;-79
2024/03/20 07:19:15;;;;;;;4.70;3.53;;;10.80;99.90;;;;;;4924768;28;20522;-78
2024/03/20 07:21:40;;;;;;;7.32;3.80;;;10.80;99.90;;;;;;4958796;28;20718;-78
2024/03/20 07:24:06;;;;;;;6.10;3.05;;;10.90;99.90;;;;;;4940770;28;20697;-81
2024/03/20 07:26:37;;;;;;;6.72;4.22;;;11.00;99.90;;;;;;4970846;28;20649;-80
2024/03/20 07:29:06;;;;;;;8.55;3.80;;;11.10;99.90;;;;;;4968862;28;20121;-81
2024/03/20 07:31:36;;;;;;;9.70;4.38;;;11.20;99.90;;;;;;4967159;28;20030;-80
2024/03/20 07:34:03;;;;;;;4.63;2.67;;;11.30;99.90;;;;;;4975919;28;20507;-81
2024/03/20 07:36:30;;;;;;;4.75;3.20;;;11.40;99.90;;;;;;4988163;28;20035;-81
2024/03/20 07:38:55;;;;;;;5.82;3.67;;;11.40;99.90;;;;;;4988520;28;20527;-80
2024/03/20 07:41:22;;;;;;;4.53;3.05;;;11.50;99.90;;;;;;4990663;28;20047;-80
2024/03/20 07:43:48;;;;;;;12.20;4.28;;;11.60;99.90;;;;;;4986299;28;20034;-81
2024/03/20 07:46:13;;;;;;;8.90;5.38;;;11.60;99.90;;;;;;4971832;28;20035;-80
2024/03/20 07:48:48;;;;;;;8.27;3.80;;;11.70;99.90;;;;;;4984791;28;21282;-80
2024/03/20 07:51:14;;;;;;;7.38;3.38;;;11.90;99.90;;;;;;4974556;28;20570;-80
2024/03/20 07:53:41;;;;;;;4.15;3.00;;;11.90;99.90;;;;;;4985546;28;20227;-80
2024/03/20 07:56:07;;;;;;;8.48;4.28;;;12.00;99.90;;;;;;4986610;28;20131;-79
2024/03/20 07:58:33;;;;;;;6.10;3.17;;;12.10;99.90;;;;;;4969024;28;20109;-83
2024/03/20 08:00:59;;;;;;;4.13;3.03;;;12.20;99.90;;;;;;4966437;28;20030;-82
2024/03/20 08:03:25;;;;;;;4.20;2.85;;;12.40;99.90;;;;;;4982851;28;20041;-80
2024/03/20 08:05:51;;;;;;;7.45;3.65;;;12.40;99.90;;;;;;4985407;28;20504;-81
2024/03/20 08:08:17;;;;;;;3.65;2.42;;;12.50;99.90;;;;;;4988454;28;20045;-81
2024/03/20 08:10:42;;;;;;;4.53;2.50;;;12.70;99.90;;;;;;4987778;28;20064;-80
2024/03/20 08:13:10;;;;;;;3.40;2.20;;;12.80;99.90;;;;;;4984063;28;20038;-82
2024/03/20 08:15:39;;;;;;;7.00;3.00;;;12.80;99.90;;;;;;4976731;28;20057;-82
2024/03/20 08:18:14;;;;;;;3.63;2.67;;;13.00;99.90;;;;;;4974723;28;20121;-79
2024/03/20 08:20:40;;;;;;;3.08;2.60;;;13.20;99.90;;;;;;4969462;28;20027;-81
2024/03/20 08:23:05;;;;;;;7.32;4.05;;;13.30;99.90;;;;;;4968720;28;20076;-81
2024/03/20 08:25:32;;;;;;;7.90;3.38;;;13.50;99.90;;;;;;4985450;28;20026;-81
2024/03/20 08:27:58;;;;;;;5.22;2.95;;;13.60;99.90;;;;;;4956959;28;20584;-80
2024/03/20 08:30:24;;;;;;;5.95;2.33;;;13.60;99.90;;;;;;4989256;28;20058;-81
2024/03/20 08:32:50;;;;;;;9.80;2.90;;;13.80;99.90;;;;;;4956207;28;20527;-81
2024/03/20 08:35:17;;;;;;;6.95;3.60;;;13.80;99.90;;;;;;4983938;28;20732;-82
2024/03/20 08:37:45;;;;;;;8.57;3.33;;;13.80;99.90;;;;;;4971424;28;20388;-82
2024/03/20 08:40:14;;;;;;;8.88;4.32;;;13.90;99.90;;;;;;4987058;28;20088;-81
2024/03/20 08:42:40;;;;;;;8.30;4.35;;;14.10;99.90;;;;;;4971291;28;20038;-81
2024/03/20 08:45:08;;;;;;;3.72;2.45;;;14.20;99.90;;;;;;4986515;28;20045;-81
2024/03/20 08:47:34;;;;;;;5.55;2.33;;;14.30;99.90;;;;;;4973510;28;20514;-82
2024/03/20 08:50:00;;;;;;;2.55;1.80;;;14.30;99.90;;;;;;4988400;28;20519;-81
2024/03/20 08:52:25;;;;;;;5.90;3.08;;;14.40;99.90;;;;;;4967541;28;20031;-82
2024/03/20 08:54:52;;;;;;;8.07;2.10;;;14.60;99.90;;;;;;4967355;28;20035;-81
2024/03/20 08:57:18;;;;;;;4.05;2.20;;;14.70;99.90;;;;;;4970239;28;20026;-82
2024/03/20 08:59:44;;;;;;;2.10;1.75;;;15.00;99.90;;;;;;4988590;28;20500;-82
2024/03/20 09:02:09;;;;;;;4.10;1.48;;;15.20;99.90;;;;;;4987693;28;20561;-82
2024/03/20 09:04:35;;;;;;;7.30;3.63;;;15.20;99.90;;;;;;4986920;28;20030;-81
2024/03/20 09:07:02;;;;;;;4.47;2.30;;;15.20;99.90;;;;;;4954899;28;20049;-81
2024/03/20 09:09:32;;;;;;;4.28;1.90;;;15.10;99.90;;;;;;4971115;28;20476;-82
2024/03/20 09:11:57;;;;;;;4.95;2.58;;;15.20;99.90;;;;;;4971392;28;20427;-82
2024/03/20 09:14:23;;;;;;;8.30;3.85;;;15.30;99.90;;;;;;4985772;28;20170;-81
2024/03/20 09:16:50;;;;;;;4.03;2.78;;;15.50;99.90;;;;;;4969989;28;20057;-82
2024/03/20 09:19:21;;;;;;;3.25;1.98;;;15.60;99.90;;;;;;4986484;28;20121;-83
2024/03/20 09:21:46;;;;;;;3.58;2.40;;;15.80;99.90;;;;;;4983084;28;20486;-83
2024/03/20 09:24:16;;;;;;;4.28;2.33;;;16.20;99.90;;;;;;4964710;28;20125;-83
2024/03/20 09:26:42;;;;;;;4.22;2.15;;;16.50;99.90;;;;;;4952803;28;20535;-83
2024/03/20 09:29:09;;;;;;;7.18;3.38;;;16.40;99.90;;;;;;4985060;28;20034;-83
2024/03/20 09:31:40;;;;;;;4.95;2.60;;;17.00;99.90;;;;;;4971261;28;20065;-83
2024/03/20 09:34:06;;;;;;;3.95;2.85;;;17.00;99.90;;;;;;4987263;28;20037;-82
2024/03/20 09:36:32;;;;;;;3.83;2.42;;;17.00;99.90;;;;;;4978037;28;20117;-84
2024/03/20 09:38:57;;;;;;;3.00;2.08;;;17.20;99.90;;;;;;4986554;28;20050;-81
2024/03/20 09:41:23;;;;;;;2.97;2.67;;;17.50;99.90;;;;;;4970179;28;20046;-84
2024/03/20 09:43:52;;;;;;;5.57;3.55;;;17.70;99.90;;;;;;4972567;28;20030;-84
2024/03/20 09:46:19;;;;;;;5.55;3.10;;;18.10;99.90;;;;;;4955013;28;20092;-83
2024/03/20 09:48:48;;;;;;;8.43;2.80;;;18.00;99.90;;;;;;4970925;28;20439;-83
2024/03/20 09:51:18;;;;;;;6.30;3.72;;;18.20;99.90;;;;;;4973843;28;20475;-82
2024/03/20 09:53:47;;;;;;;6.07;3.15;;;18.00;99.90;;;;;;4967205;28;20117;-83
2024/03/20 09:56:14;;;;;;;4.75;2.65;;;18.00;99.90;;;;;;4968352;28;20025;-83
2024/03/20 09:58:42;;;;;;;10.02;2.85;;;18.60;99.90;;;;;;4973077;28;20092;-83
2024/03/20 10:01:13;;;;;;;7.38;2.90;;;18.50;99.90;;;;;;4986787;28;20497;-83
2024/03/20 10:03:39;;;;;;;6.03;2.78;;;18.50;99.90;;;;;;4986780;28;20419;-82
2024/03/20 10:06:07;;;;;;;4.55;3.03;;;18.90;99.90;;;;;;4971903;28;20046;-83
2024/03/20 10:08:34;;;;;;;6.93;3.80;;;19.30;99.90;;;;;;4987984;28;20118;-83
2024/03/20 10:11:00;;;;;;;6.97;3.35;;;19.30;99.90;;;;;;4952255;28;20045;-83
2024/03/20 10:13:26;;;;;;;6.80;3.75;;;19.40;99.90;;;;;;4989691;28;20069;-83
2024/03/20 10:16:08;;;;;;;8.90;4.13;;;19.90;99.90;;;;;;4988224;28;20424;-83
2024/03/20 10:18:34;;;;;;;6.80;4.03;;;20.00;99.90;;;;;;4976114;28;20534;-83
2024/03/20 10:21:03;;;;;;;7.20;2.97;;;20.20;99.90;;;;;;4957888;28;20045;-83
2024/03/20 10:23:29;;;;;;;6.38;3.13;;;20.20;99.90;;;;;;4984029;28;20523;-84
2024/03/20 10:25:58;;;;;;;7.63;3.05;;;20.20;99.90;;;;;;4973500;28;20026;-83
2024/03/20 10:28:25;;;;;;;6.07;3.05;;;20.60;99.90;;;;;;4969191;28;20038;-83
2024/03/20 10:30:51;;;;;;;6.13;3.03;;;20.50;99.90;;;;;;4974731;28;20154;-84
2024/03/20 10:33:18;;;;;;;5.70;3.10;;;20.80;99.90;;;;;;4973111;28;20523;-83
2024/03/20 10:35:47;;;;;;;3.30;2.85;;;20.60;99.90;;;;;;4975694;28;20026;-81
2024/03/20 10:38:13;;;;;;;5.28;2.75;;;20.60;99.90;;;;;;4987567;28;20035;-82
2024/03/20 10:40:39;;;;;;;3.17;2.58;;;20.30;99.90;;;;;;4956863;28;20031;-83
2024/03/20 10:43:05;;;;;;;4.90;2.10;;;20.70;99.90;;;;;;4967848;28;20105;-83
2024/03/20 10:45:30;;;;;;;5.70;3.15;;;20.80;99.90;;;;;;4969832;28;20081;-83
2024/03/20 10:47:56;;;;;;;3.88;2.75;;;20.80;99.90;;;;;;4986878;28;20030;-82
2024/03/20 10:50:21;;;;;;;4.70;2.22;;;20.70;99.90;;;;;;4991060;28;20046;-82
2024/03/20 10:52:48;;;;;;;4.78;2.47;;;20.50;99.90;;;;;;4970512;28;20037;-82
2024/03/20 10:55:15;;;;;;;3.45;1.92;;;20.70;99.90;;;;;;4956752;28;20030;-82
2024/03/20 10:57:41;;;;;;;5.82;3.53;;;20.40;99.90;;;;;;4959604;28;20030;-83
2024/03/20 11:00:17;;;;;;;7.28;2.00;;;21.30;99.90;;;;;;4970934;28;20105;-82
2024/03/20 11:02:46;;;;;;;4.97;2.78;;;21.50;99.90;;;;;;4967458;28;20034;-83
2024/03/20 11:05:38;;;;;;;3.60;2.60;;;21.30;99.90;;;;;;4980678;28;20035;-83
2024/03/20 11:08:07;;;;;;;4.75;2.45;;;21.60;99.90;;;;;;4997566;28;20071;-84
2024/03/20 11:10:33;;;;;;;2.67;1.73;;;21.90;99.90;;;;;;5001356;28;20034;-83
2024/03/20 11:12:59;;;;;;;5.13;2.40;;;22.10;99.90;;;;;;4971664;28;20416;-84
2024/03/20 11:15:26;;;;;;;5.50;2.20;;;22.20;99.90;;;;;;4972912;28;20041;-84
2024/03/20 11:17:52;;;;;;;4.13;1.90;;;21.90;99.90;;;;;;4971562;28;20380;-84
2024/03/20 11:20:33;;;;;;;2.55;1.58;;;21.90;99.90;;;;;;4975546;28;20039;-84
2024/03/20 11:22:59;;;;;;;4.65;1.98;;;21.60;99.90;;;;;;4987635;28;20031;-83
2024/03/20 11:25:25;;;;;;;4.50;2.03;;;22.10;99.90;;;;;;4974277;28;20030;-84
2024/03/20 11:27:57;;;;;;;5.15;2.65;;;22.10;99.90;;;;;;4979083;28;20428;-84
2024/03/20 11:30:22;;;;;;;3.35;2.75;;;21.40;99.90;;;;;;4957791;28;20030;-84
2024/03/20 11:32:48;;;;;;;4.20;1.90;;;21.70;99.90;;;;;;4959614;28;20026;-84
2024/03/20 11:35:15;;;;;;;5.88;3.35;;;21.60;99.90;;;;;;4969815;28;20027;-84
2024/03/20 11:37:43;;;;;;;7.60;3.50;;;21.50;99.90;;;;;;4957302;28;20042;-86
2024/03/20 11:40:13;;;;;;;4.32;2.22;;;21.30;99.90;;;;;;4974104;28;20030;-85
2024/03/20 11:42:38;;;;;;;3.90;2.03;;;21.40;99.90;;;;;;4971793;28;20355;-85
2024/03/20 11:45:06;;;;;;;4.57;3.15;;;22.00;99.90;;;;;;4986980;28;20169;-86
2024/03/20 11:47:31;;;;;;;3.03;2.55;;;21.80;99.90;;;;;;4988304;28;20042;-87
2024/03/20 11:49:57;;;;;;;4.32;3.03;;;22.30;99.90;;;;;;4985979;28;20514;-87
2024/03/20 11:52:23;;;;;;;5.05;2.95;;;22.70;99.90;;;;;;4954212;28;20037;-82
2024/03/20 11:54:48;;;;;;;5.35;2.00;;;22.90;98.50;;;;;;4971134;28;20035;-84
2024/03/20 11:57:15;;;;;;;2.92;2.45;;;23.30;98.60;;;;;;4986787;28;20141;-84
2024/03/20 11:59:47;;;;;;;3.75;2.60;;;22.90;99.90;;;;;;4982641;28;20038;-83
2024/03/20 12:02:14;;;;;;;2.13;1.80;;;23.20;97.80;;;;;;4986382;28;20074;-84
2024/03/20 12:04:41;;;;;;;6.30;3.95;;;23.20;97.20;;;;;;4972162;28;20055;-84
2024/03/20 12:07:29;;;;;;;4.60;3.20;;;22.70;99.90;;;;;;4989276;28;20049;-86
2024/03/20 12:09:55;;;;;;;6.28;2.50;;;22.20;99.90;;;;;;4988931;28;20491;-84
2024/03/20 12:12:22;;;;;;;8.73;4.03;;;22.20;99.90;;;;;;4953693;28;20145;-84
2024/03/20 12:14:59;;;;;;;6.28;2.22;;;22.60;98.20;;;;;;4970753;28;20110;-85
2024/03/20 12:17:26;;;;;;;5.03;2.28;;;22.80;99.90;;;;;;4962364;28;20035;-86
2024/03/20 12:19:52;;;;;;;3.40;2.22;;;23.20;99.90;;;;;;4986479;28;20035;-85
2024/03/20 12:22:19;;;;;;;5.53;2.63;;;23.30;99.90;;;;;;4988166;28;20611;-85
2024/03/20 12:24:46;;;;;;;2.58;1.65;;;23.40;99.80;;;;;;4957981;28;20073;-86
2024/03/20 12:27:16;;;;;;;3.80;2.17;;;23.10;98.10;;;;;;5003926;28;20499;-85
2024/03/20 12:29:42;;;;;;;2.35;2.10;;;23.70;95.90;;;;;;5007680;28;20088;-87
2024/03/20 12:32:08;;;;;;;2.60;1.70;;;23.60;96.30;;;;;;4959152;28;20483;-86
2024/03/20 12:34:40;;;;;;;3.90;2.05;;;23.90;95.20;;;;;;4975468;28;20044;-87
2024/03/20 12:37:07;;;;;;;6.25;2.30;;;24.30;93.90;;;;;;4989337;28;20039;-87
2024/03/20 12:39:39;;;;;;;3.17;1.92;;;24.30;92.90;;;;;;4973857;28;20204;-87
2024/03/20 12:42:05;;;;;;;5.18;1.88;;;24.50;93.00;;;;;;4971358;28;20046;-87
2024/03/20 12:44:30;;;;;;;3.13;1.80;;;23.90;96.50;;;;;;4956918;28;20042;-86
2024/03/20 12:46:56;;;;;;;3.92;2.22;;;24.40;94.60;;;;;;4960881;28;20038;-86